Pronóstico
Mapa Interactivo
Aviación
Climatología
Hidrometeorología
Agrometeorología
Estaciones Automáticas
Transparencia
OMM WMO
Portada
Institución
Noticias
Imágenes
Tsunami
Historial
Boletines y Alertas
Contactos
Buscar Contenidos
Informe del Tiempo

SANTO DOMINGO 19 DE OCTUBRE DEL 2018 

 AEROP. INT. LAS AMERICAS JFPG-                                                                                 

                                                                                                                                                         

FTDR31 MDSD 191600Z
TAF

TAF MDPP 191600Z 1918/2018 06005KT 9999 SCT022 PRO30 1918/2000 7000 TSSH FEW016CB SCT018 SCT070=

TAF MDST 191600Z 1918/2018 09010KT 9999 SCT022 PROB30 1918 / 2000 8000 SH FEW018CB BKN020 =

TAF MDPC 191600Z 1918/2018 07012KT 9999 SCT022 PROB30 1919/2000 8000 –RA BKN017 SCT070=

TAF MDBH 191600Z 1918/2018 13012KT 9999 FEW022CB FEW025 SCT300=

TAF MDJB 191600Z 1918/2018 02010KT 9999 SCT018 SCT080 PROB30 1918/2000Z 8000 VCSH BKN018 BKN080 BECMG 2000/2002 00000KT= 

TAF MDSD 191600Z 1918/2018 09008KT 9999 SCT018 PROB30 1918/1922 8000 –TSRA FEW016CB BKN018=

TAF MDLR 191600Z 1918/2018 09012KT 9999 SCT022 PROB30 1918/2000 6000 TSRA FEW016CB BKN018=

TAF MDCY 191600Z 1918/2018 09010KT 9999 SCT018 PROB40 1918/2000 7000 -RA FEW016CB SCT018 SCT070

MDPP AEROPUERTO INTERNACIONAL LA UNION PUERTO PLATA

MDST AEROPUERTO INTERNACIONAL DE SANTIAGO

MDPC AEROPUERTO INTERNACIONAL PUNTA CANA

MDBH AEROPUERTO INTERNACIONAL DE BARAHONA

MDJB AEROPUERTO INTERNACIONAL JOAQUIN BALAGUER

MDSD AEROPUERTO INTERNACIONAL LAS AMERICAS

MDLR AEROPUERTO INTERNACIONAL LA ROMANA

MDCY AEROPUERTO INTERNACIONAL DE CATEY

 

ARISLEYDA DE LA CRUZ DONNATORG.

MDPP // DIONYS OGANDO

MDST // FRANKLIN GOMEZ

MDPC // ROSA INES VICTORIO

MDBH//MENDEZ

MDJB//BELKIS M

MDLR//ISABEL N

MDCY//KATIUSA V